sensor_id;sensor_type;location;lat;lon;timestamp;P1;durP1;ratioP1;P2;durP2;ratioP2
59074;SDS011;44860;53.020;6.738;2023-04-02T00:02:33;10.40;;;6.47;;
59074;SDS011;44860;53.020;6.738;2023-04-02T00:07:56;10.98;;;6.10;;
59074;SDS011;44860;53.020;6.738;2023-04-02T00:15:26;9.65;;;5.55;;
59074;SDS011;44860;53.020;6.738;2023-04-02T00:17:52;8.63;;;5.63;;
59074;SDS011;44860;53.020;6.738;2023-04-02T00:20:18;9.85;;;5.07;;
59074;SDS011;44860;53.020;6.738;2023-04-02T00:22:46;8.75;;;5.28;;
59074;SDS011;44860;53.020;6.738;2023-04-02T00:25:13;10.32;;;5.13;;
59074;SDS011;44860;53.020;6.738;2023-04-02T00:27:39;10.32;;;4.80;;
59074;SDS011;44860;53.020;6.738;2023-04-02T00:30:05;9.65;;;4.88;;
59074;SDS011;44860;53.020;6.738;2023-04-02T00:32:32;8.98;;;5.35;;
59074;SDS011;44860;53.020;6.738;2023-04-02T00:34:59;9.10;;;4.88;;
59074;SDS011;44860;53.020;6.738;2023-04-02T00:37:27;10.27;;;4.70;;
59074;SDS011;44860;53.020;6.738;2023-04-02T00:40:47;11.20;;;4.75;;
59074;SDS011;44860;53.020;6.738;2023-04-02T00:42:51;8.60;;;4.82;;
59074;SDS011;44860;53.020;6.738;2023-04-02T00:45:27;10.27;;;5.25;;
59074;SDS011;44860;53.020;6.738;2023-04-02T00:47:58;7.97;;;4.82;;
59074;SDS011;44860;53.020;6.738;2023-04-02T00:50:40;10.57;;;5.25;;
59074;SDS011;44860;53.020;6.738;2023-04-02T00:53:10;9.43;;;5.10;;
59074;SDS011;44860;53.020;6.738;2023-04-02T00:55:41;10.70;;;4.60;;
59074;SDS011;44860;53.020;6.738;2023-04-02T00:58:15;9.27;;;4.80;;
59074;SDS011;44860;53.020;6.738;2023-04-02T01:00:49;8.73;;;4.75;;
59074;SDS011;44860;53.020;6.738;2023-04-02T01:05:42;8.43;;;4.80;;
59074;SDS011;44860;53.020;6.738;2023-04-02T01:08:25;9.77;;;4.90;;
59074;SDS011;44860;53.020;6.738;2023-04-02T01:24:18;7.88;;;4.50;;
59074;SDS011;44860;53.020;6.738;2023-04-02T01:26:52;9.88;;;4.57;;
59074;SDS011;44860;53.020;6.738;2023-04-02T01:31:54;9.45;;;4.15;;
59074;SDS011;44860;53.020;6.738;2023-04-02T01:34:23;8.27;;;4.45;;
59074;SDS011;44860;53.020;6.738;2023-04-02T01:42:24;9.75;;;4.50;;
59074;SDS011;44860;53.020;6.738;2023-04-02T01:45:13;8.00;;;4.25;;
59074;SDS011;44860;53.020;6.738;2023-04-02T01:47:41;10.23;;;4.38;;
59074;SDS011;44860;53.020;6.738;2023-04-02T01:52:41;9.93;;;4.45;;
59074;SDS011;44860;53.020;6.738;2023-04-02T01:55:09;9.20;;;4.38;;
59074;SDS011;44860;53.020;6.738;2023-04-02T01:57:40;6.72;;;3.85;;
59074;SDS011;44860;53.020;6.738;2023-04-02T02:00:12;9.45;;;4.00;;
59074;SDS011;44860;53.020;6.738;2023-04-02T02:02:39;7.97;;;4.05;;
59074;SDS011;44860;53.020;6.738;2023-04-02T02:05:11;8.95;;;4.20;;
59074;SDS011;44860;53.020;6.738;2023-04-02T02:07:42;7.82;;;4.55;;
59074;SDS011;44860;53.020;6.738;2023-04-02T02:10:12;7.65;;;3.90;;
59074;SDS011;44860;53.020;6.738;2023-04-02T02:12:50;7.88;;;4.05;;
59074;SDS011;44860;53.020;6.738;2023-04-02T02:15:17;7.53;;;3.88;;
59074;SDS011;44860;53.020;6.738;2023-04-02T02:17:45;9.80;;;4.22;;
59074;SDS011;44860;53.020;6.738;2023-04-02T02:20:11;6.97;;;3.63;;
59074;SDS011;44860;53.020;6.738;2023-04-02T02:22:48;7.93;;;3.47;;
59074;SDS011;44860;53.020;6.738;2023-04-02T02:25:19;6.60;;;3.20;;
59074;SDS011;44860;53.020;6.738;2023-04-02T02:27:50;8.88;;;3.42;;
59074;SDS011;44860;53.020;6.738;2023-04-02T02:30:23;6.63;;;3.30;;
59074;SDS011;44860;53.020;6.738;2023-04-02T02:38:35;7.78;;;2.88;;
59074;SDS011;44860;53.020;6.738;2023-04-02T02:40:49;6.70;;;3.00;;
59074;SDS011;44860;53.020;6.738;2023-04-02T02:43:20;7.18;;;2.97;;
59074;SDS011;44860;53.020;6.738;2023-04-02T02:45:46;9.80;;;3.10;;
59074;SDS011;44860;53.020;6.738;2023-04-02T02:48:14;7.40;;;2.78;;
59074;SDS011;44860;53.020;6.738;2023-04-02T02:50:43;7.95;;;2.75;;
59074;SDS011;44860;53.020;6.738;2023-04-02T02:53:19;7.82;;;3.40;;
59074;SDS011;44860;53.020;6.738;2023-04-02T02:55:52;8.82;;;2.78;;
59074;SDS011;44860;53.020;6.738;2023-04-02T02:58:25;7.25;;;2.40;;
59074;SDS011;44860;53.020;6.738;2023-04-02T03:00:55;6.85;;;2.97;;
59074;SDS011;44860;53.020;6.738;2023-04-02T03:03:23;6.20;;;2.38;;
59074;SDS011;44860;53.020;6.738;2023-04-02T03:05:55;8.45;;;2.78;;
59074;SDS011;44860;53.020;6.738;2023-04-02T03:13:47;6.20;;;2.40;;
59074;SDS011;44860;53.020;6.738;2023-04-02T03:16:19;8.07;;;2.40;;
59074;SDS011;44860;53.020;6.738;2023-04-02T03:19:04;6.00;;;2.78;;
59074;SDS011;44860;53.020;6.738;2023-04-02T03:21:51;5.47;;;2.30;;
59074;SDS011;44860;53.020;6.738;2023-04-02T03:27:14;8.98;;;2.55;;
59074;SDS011;44860;53.020;6.738;2023-04-02T03:29:53;6.80;;;2.38;;
59074;SDS011;44860;53.020;6.738;2023-04-02T03:32:30;9.80;;;2.15;;
59074;SDS011;44860;53.020;6.738;2023-04-02T03:35:21;6.43;;;2.17;;
59074;SDS011;44860;53.020;6.738;2023-04-02T03:37:55;5.88;;;2.10;;
59074;SDS011;44860;53.020;6.738;2023-04-02T03:40:33;6.28;;;2.10;;
59074;SDS011;44860;53.020;6.738;2023-04-02T03:45:38;6.77;;;2.23;;
59074;SDS011;44860;53.020;6.738;2023-04-02T03:48:18;6.13;;;1.92;;
59074;SDS011;44860;53.020;6.738;2023-04-02T03:53:31;5.25;;;1.85;;
59074;SDS011;44860;53.020;6.738;2023-04-02T03:55:57;5.43;;;1.75;;
59074;SDS011;44860;53.020;6.738;2023-04-02T03:58:36;4.15;;;1.80;;
59074;SDS011;44860;53.020;6.738;2023-04-02T04:01:12;7.00;;;2.13;;
59074;SDS011;44860;53.020;6.738;2023-04-02T04:04:13;6.45;;;2.05;;
59074;SDS011;44860;53.020;6.738;2023-04-02T04:06:42;6.47;;;1.80;;
59074;SDS011;44860;53.020;6.738;2023-04-02T04:09:10;6.93;;;1.80;;
59074;SDS011;44860;53.020;6.738;2023-04-02T04:11:43;5.75;;;1.77;;
59074;SDS011;44860;53.020;6.738;2023-04-02T04:14:19;6.25;;;1.92;;
59074;SDS011;44860;53.020;6.738;2023-04-02T04:17:00;3.92;;;1.80;;
59074;SDS011;44860;53.020;6.738;2023-04-02T04:19:37;6.93;;;2.03;;
59074;SDS011;44860;53.020;6.738;2023-04-02T04:22:17;8.05;;;1.80;;
59074;SDS011;44860;53.020;6.738;2023-04-02T04:24:57;9.57;;;2.00;;
59074;SDS011;44860;53.020;6.738;2023-04-02T04:27:50;7.90;;;2.17;;
59074;SDS011;44860;53.020;6.738;2023-04-02T04:30:59;6.07;;;1.92;;
59074;SDS011;44860;53.020;6.738;2023-04-02T04:33:25;7.72;;;2.10;;
59074;SDS011;44860;53.020;6.738;2023-04-02T04:35:58;7.18;;;2.03;;
59074;SDS011;44860;53.020;6.738;2023-04-02T04:41:04;4.53;;;1.55;;
59074;SDS011;44860;53.020;6.738;2023-04-02T04:46:14;5.40;;;2.10;;
59074;SDS011;44860;53.020;6.738;2023-04-02T04:51:26;6.05;;;1.70;;
59074;SDS011;44860;53.020;6.738;2023-04-02T04:53:58;5.20;;;2.00;;
59074;SDS011;44860;53.020;6.738;2023-04-02T04:56:25;5.82;;;1.73;;
59074;SDS011;44860;53.020;6.738;2023-04-02T04:59:04;3.22;;;1.48;;
59074;SDS011;44860;53.020;6.738;2023-04-02T05:04:29;5.35;;;2.00;;
59074;SDS011;44860;53.020;6.738;2023-04-02T05:07:02;8.45;;;2.13;;
59074;SDS011;44860;53.020;6.738;2023-04-02T05:09:36;6.85;;;1.90;;
59074;SDS011;44860;53.020;6.738;2023-04-02T05:15:29;6.75;;;1.90;;
59074;SDS011;44860;53.020;6.738;2023-04-02T05:17:56;5.65;;;1.83;;
59074;SDS011;44860;53.020;6.738;2023-04-02T05:23:29;6.25;;;1.90;;
59074;SDS011;44860;53.020;6.738;2023-04-02T05:28:46;5.63;;;2.42;;
59074;SDS011;44860;53.020;6.738;2023-04-02T05:34:22;6.95;;;2.00;;
59074;SDS011;44860;53.020;6.738;2023-04-02T05:36:52;6.28;;;2.00;;
59074;SDS011;44860;53.020;6.738;2023-04-02T05:39:20;7.40;;;1.90;;
59074;SDS011;44860;53.020;6.738;2023-04-02T05:41:48;8.32;;;2.10;;
59074;SDS011;44860;53.020;6.738;2023-04-02T05:44:33;4.90;;;1.63;;
59074;SDS011;44860;53.020;6.738;2023-04-02T05:47:12;4.82;;;1.90;;
59074;SDS011;44860;53.020;6.738;2023-04-02T05:49:49;5.20;;;2.00;;
59074;SDS011;44860;53.020;6.738;2023-04-02T05:52:30;5.22;;;1.80;;
59074;SDS011;44860;53.020;6.738;2023-04-02T05:55:18;5.82;;;1.92;;
59074;SDS011;44860;53.020;6.738;2023-04-02T05:57:53;5.68;;;1.52;;
59074;SDS011;44860;53.020;6.738;2023-04-02T06:05:55;5.22;;;1.58;;
59074;SDS011;44860;53.020;6.738;2023-04-02T06:08:28;5.97;;;2.05;;
59074;SDS011;44860;53.020;6.738;2023-04-02T06:11:07;5.75;;;1.80;;
59074;SDS011;44860;53.020;6.738;2023-04-02T06:13:35;7.95;;;2.08;;
59074;SDS011;44860;53.020;6.738;2023-04-02T06:16:02;8.85;;;1.88;;
59074;SDS011;44860;53.020;6.738;2023-04-02T06:18:29;8.13;;;1.80;;
59074;SDS011;44860;53.020;6.738;2023-04-02T06:20:57;10.75;;;1.95;;
59074;SDS011;44860;53.020;6.738;2023-04-02T06:23:24;3.80;;;1.60;;
59074;SDS011;44860;53.020;6.738;2023-04-02T06:33:58;6.43;;;1.80;;
59074;SDS011;44860;53.020;6.738;2023-04-02T06:36:24;7.47;;;1.67;;
59074;SDS011;44860;53.020;6.738;2023-04-02T06:38:53;7.20;;;2.05;;
59074;SDS011;44860;53.020;6.738;2023-04-02T06:41:23;6.10;;;1.80;;
59074;SDS011;44860;53.020;6.738;2023-04-02T06:43:53;8.25;;;1.63;;
59074;SDS011;44860;53.020;6.738;2023-04-02T06:46:42;6.00;;;1.70;;
59074;SDS011;44860;53.020;6.738;2023-04-02T06:52:00;6.07;;;1.80;;
59074;SDS011;44860;53.020;6.738;2023-04-02T06:54:28;6.28;;;2.10;;
59074;SDS011;44860;53.020;6.738;2023-04-02T06:56:54;8.63;;;2.05;;
59074;SDS011;44860;53.020;6.738;2023-04-02T06:59:20;4.68;;;1.60;;
59074;SDS011;44860;53.020;6.738;2023-04-02T07:02:03;8.32;;;1.73;;
59074;SDS011;44860;53.020;6.738;2023-04-02T07:04:42;7.18;;;1.75;;
59074;SDS011;44860;53.020;6.738;2023-04-02T07:07:07;7.07;;;1.80;;
59074;SDS011;44860;53.020;6.738;2023-04-02T07:09:33;9.15;;;1.98;;
59074;SDS011;44860;53.020;6.738;2023-04-02T07:11:59;6.82;;;1.83;;
59074;SDS011;44860;53.020;6.738;2023-04-02T07:14:25;6.88;;;3.70;;
59074;SDS011;44860;53.020;6.738;2023-04-02T07:16:50;5.70;;;1.73;;
59074;SDS011;44860;53.020;6.738;2023-04-02T07:19:17;4.78;;;1.65;;
59074;SDS011;44860;53.020;6.738;2023-04-02T07:21:45;6.15;;;1.67;;
59074;SDS011;44860;53.020;6.738;2023-04-02T07:24:11;9.07;;;1.80;;
59074;SDS011;44860;53.020;6.738;2023-04-02T07:26:38;9.73;;;2.30;;
59074;SDS011;44860;53.020;6.738;2023-04-02T07:29:05;4.95;;;1.70;;
59074;SDS011;44860;53.020;6.738;2023-04-02T07:31:32;5.57;;;1.55;;
59074;SDS011;44860;53.020;6.738;2023-04-02T07:33:59;10.98;;;4.45;;
59074;SDS011;44860;53.020;6.738;2023-04-02T07:36:25;10.43;;;3.40;;
59074;SDS011;44860;53.020;6.738;2023-04-02T07:38:52;7.35;;;2.00;;
59074;SDS011;44860;53.020;6.738;2023-04-02T07:41:18;7.28;;;1.77;;
59074;SDS011;44860;53.020;6.738;2023-04-02T07:43:45;6.78;;;2.20;;
59074;SDS011;44860;53.020;6.738;2023-04-02T07:46:11;7.50;;;1.85;;
59074;SDS011;44860;53.020;6.738;2023-04-02T07:48:39;4.45;;;1.55;;
59074;SDS011;44860;53.020;6.738;2023-04-02T07:51:11;4.88;;;1.65;;
59074;SDS011;44860;53.020;6.738;2023-04-02T07:53:42;6.07;;;1.48;;
59074;SDS011;44860;53.020;6.738;2023-04-02T07:56:08;6.85;;;1.80;;
59074;SDS011;44860;53.020;6.738;2023-04-02T07:58:38;7.90;;;1.90;;
59074;SDS011;44860;53.020;6.738;2023-04-02T08:01:04;5.82;;;2.20;;
59074;SDS011;44860;53.020;6.738;2023-04-02T08:03:45;6.47;;;2.00;;
59074;SDS011;44860;53.020;6.738;2023-04-02T08:06:11;9.60;;;3.92;;
59074;SDS011;44860;53.020;6.738;2023-04-02T08:08:37;7.40;;;1.90;;
59074;SDS011;44860;53.020;6.738;2023-04-02T08:11:03;6.88;;;1.80;;
59074;SDS011;44860;53.020;6.738;2023-04-02T08:13:29;6.72;;;1.70;;
59074;SDS011;44860;53.020;6.738;2023-04-02T08:15:59;5.45;;;1.75;;
59074;SDS011;44860;53.020;6.738;2023-04-02T08:18:25;7.13;;;2.15;;
59074;SDS011;44860;53.020;6.738;2023-04-02T08:20:51;6.05;;;1.80;;
59074;SDS011;44860;53.020;6.738;2023-04-02T08:23:17;8.25;;;1.92;;
59074;SDS011;44860;53.020;6.738;2023-04-02T08:25:43;5.95;;;1.73;;
59074;SDS011;44860;53.020;6.738;2023-04-02T08:28:09;7.63;;;1.83;;
59074;SDS011;44860;53.020;6.738;2023-04-02T08:30:35;5.10;;;1.77;;
59074;SDS011;44860;53.020;6.738;2023-04-02T08:33:01;8.20;;;2.13;;
59074;SDS011;44860;53.020;6.738;2023-04-02T08:35:27;7.90;;;2.22;;
59074;SDS011;44860;53.020;6.738;2023-04-02T08:37:53;3.70;;;1.63;;
59074;SDS011;44860;53.020;6.738;2023-04-02T08:40:40;8.15;;;1.85;;
59074;SDS011;44860;53.020;6.738;2023-04-02T08:48:48;8.25;;;1.63;;
59074;SDS011;44860;53.020;6.738;2023-04-02T08:51:26;8.10;;;2.20;;
59074;SDS011;44860;53.020;6.738;2023-04-02T08:53:55;6.93;;;2.10;;
59074;SDS011;44860;53.020;6.738;2023-04-02T08:56:41;5.85;;;1.80;;
59074;SDS011;44860;53.020;6.738;2023-04-02T08:59:17;11.68;;;6.07;;
59074;SDS011;44860;53.020;6.738;2023-04-02T09:04:59;7.20;;;2.05;;
59074;SDS011;44860;53.020;6.738;2023-04-02T09:07:28;4.25;;;2.00;;
59074;SDS011;44860;53.020;6.738;2023-04-02T09:09:57;7.28;;;2.05;;
59074;SDS011;44860;53.020;6.738;2023-04-02T09:12:27;7.57;;;2.80;;
59074;SDS011;44860;53.020;6.738;2023-04-02T09:17:52;4.32;;;1.83;;
59074;SDS011;44860;53.020;6.738;2023-04-02T09:20:40;4.65;;;1.80;;
59074;SDS011;44860;53.020;6.738;2023-04-02T09:23:08;3.17;;;1.65;;
59074;SDS011;44860;53.020;6.738;2023-04-02T09:25:43;6.47;;;1.88;;
59074;SDS011;44860;53.020;6.738;2023-04-02T09:28:11;4.50;;;1.63;;
59074;SDS011;44860;53.020;6.738;2023-04-02T09:33:13;4.82;;;1.30;;
59074;SDS011;44860;53.020;6.738;2023-04-02T09:40:46;5.50;;;1.60;;
59074;SDS011;44860;53.020;6.738;2023-04-02T09:43:17;6.70;;;1.45;;
59074;SDS011;44860;53.020;6.738;2023-04-02T09:45:55;6.05;;;1.70;;
59074;SDS011;44860;53.020;6.738;2023-04-02T09:48:34;12.50;;;6.82;;
59074;SDS011;44860;53.020;6.738;2023-04-02T09:51:16;6.78;;;2.15;;
59074;SDS011;44860;53.020;6.738;2023-04-02T09:56:15;5.10;;;1.58;;
59074;SDS011;44860;53.020;6.738;2023-04-02T09:59:03;7.95;;;1.83;;
59074;SDS011;44860;53.020;6.738;2023-04-02T10:01:41;6.03;;;1.58;;
59074;SDS011;44860;53.020;6.738;2023-04-02T10:07:51;3.85;;;1.30;;
59074;SDS011;44860;53.020;6.738;2023-04-02T10:12:43;5.60;;;1.73;;
59074;SDS011;44860;53.020;6.738;2023-04-02T10:15:16;5.97;;;1.58;;
59074;SDS011;44860;53.020;6.738;2023-04-02T10:17:53;4.10;;;1.65;;
59074;SDS011;44860;53.020;6.738;2023-04-02T10:20:39;8.32;;;1.98;;
59074;SDS011;44860;53.020;6.738;2023-04-02T10:23:11;5.28;;;1.73;;
59074;SDS011;44860;53.020;6.738;2023-04-02T10:25:41;8.20;;;2.17;;
59074;SDS011;44860;53.020;6.738;2023-04-02T10:28:31;8.57;;;2.10;;
59074;SDS011;44860;53.020;6.738;2023-04-02T10:33:45;7.00;;;1.80;;
59074;SDS011;44860;53.020;6.738;2023-04-02T10:39:55;5.13;;;1.85;;
59074;SDS011;44860;53.020;6.738;2023-04-02T10:44:57;4.95;;;1.73;;
59074;SDS011;44860;53.020;6.738;2023-04-02T10:47:50;3.38;;;1.60;;
59074;SDS011;44860;53.020;6.738;2023-04-02T10:50:31;4.03;;;1.52;;
59074;SDS011;44860;53.020;6.738;2023-04-02T10:55:34;4.72;;;1.42;;
59074;SDS011;44860;53.020;6.738;2023-04-02T10:58:10;4.78;;;1.35;;
59074;SDS011;44860;53.020;6.738;2023-04-02T11:00:48;6.03;;;2.80;;
59074;SDS011;44860;53.020;6.738;2023-04-02T11:03:38;6.05;;;1.98;;
59074;SDS011;44860;53.020;6.738;2023-04-02T11:06:50;4.45;;;1.30;;
59074;SDS011;44860;53.020;6.738;2023-04-02T11:09:03;4.15;;;1.42;;
59074;SDS011;44860;53.020;6.738;2023-04-02T11:11:36;3.47;;;1.80;;
59074;SDS011;44860;53.020;6.738;2023-04-02T11:14:11;4.05;;;1.52;;
59074;SDS011;44860;53.020;6.738;2023-04-02T11:16:40;3.92;;;1.60;;
59074;SDS011;44860;53.020;6.738;2023-04-02T11:21:40;4.55;;;1.50;;
59074;SDS011;44860;53.020;6.738;2023-04-02T11:26:54;3.83;;;1.42;;
59074;SDS011;44860;53.020;6.738;2023-04-02T11:29:31;3.25;;;1.20;;
59074;SDS011;44860;53.020;6.738;2023-04-02T11:32:13;3.50;;;1.30;;
59074;SDS011;44860;53.020;6.738;2023-04-02T11:37:09;3.50;;;1.30;;
59074;SDS011;44860;53.020;6.738;2023-04-02T11:39:54;9.95;;;4.00;;
59074;SDS011;44860;53.020;6.738;2023-04-02T11:44:49;5.00;;;1.45;;
59074;SDS011;44860;53.020;6.738;2023-04-02T11:47:22;4.82;;;1.45;;
59074;SDS011;44860;53.020;6.738;2023-04-02T11:55:21;3.58;;;1.48;;
59074;SDS011;44860;53.020;6.738;2023-04-02T12:00:32;4.53;;;1.75;;
59074;SDS011;44860;53.020;6.738;2023-04-02T12:03:33;5.00;;;1.42;;
59074;SDS011;44860;53.020;6.738;2023-04-02T12:11:34;5.05;;;1.42;;
59074;SDS011;44860;53.020;6.738;2023-04-02T12:14:06;5.78;;;1.50;;
59074;SDS011;44860;53.020;6.738;2023-04-02T12:16:51;4.03;;;1.25;;
59074;SDS011;44860;53.020;6.738;2023-04-02T12:19:17;3.05;;;1.40;;
59074;SDS011;44860;53.020;6.738;2023-04-02T12:21:46;4.68;;;1.33;;
59074;SDS011;44860;53.020;6.738;2023-04-02T12:24:19;6.20;;;1.60;;
59074;SDS011;44860;53.020;6.738;2023-04-02T12:26:47;4.35;;;1.48;;
59074;SDS011;44860;53.020;6.738;2023-04-02T12:29:15;4.28;;;1.40;;
59074;SDS011;44860;53.020;6.738;2023-04-02T12:31:46;2.72;;;1.30;;
59074;SDS011;44860;53.020;6.738;2023-04-02T12:34:13;3.90;;;1.40;;
59074;SDS011;44860;53.020;6.738;2023-04-02T12:36:50;3.97;;;1.50;;
59074;SDS011;44860;53.020;6.738;2023-04-02T12:39:18;4.30;;;1.35;;
59074;SDS011;44860;53.020;6.738;2023-04-02T12:41:44;4.80;;;1.50;;
59074;SDS011;44860;53.020;6.738;2023-04-02T12:44:28;3.13;;;1.42;;
59074;SDS011;44860;53.020;6.738;2023-04-02T12:46:55;5.18;;;1.30;;
59074;SDS011;44860;53.020;6.738;2023-04-02T12:49:24;4.43;;;1.98;;
59074;SDS011;44860;53.020;6.738;2023-04-02T12:52:05;4.28;;;1.58;;
59074;SDS011;44860;53.020;6.738;2023-04-02T12:54:42;2.63;;;1.30;;
59074;SDS011;44860;53.020;6.738;2023-04-02T12:57:20;8.20;;;2.15;;
59074;SDS011;44860;53.020;6.738;2023-04-02T12:59:49;3.88;;;1.85;;
59074;SDS011;44860;53.020;6.738;2023-04-02T13:02:21;4.82;;;1.70;;
59074;SDS011;44860;53.020;6.738;2023-04-02T13:04:49;3.00;;;1.08;;
59074;SDS011;44860;53.020;6.738;2023-04-02T13:07:17;4.63;;;1.15;;
59074;SDS011;44860;53.020;6.738;2023-04-02T13:12:22;2.22;;;1.25;;
59074;SDS011;44860;53.020;6.738;2023-04-02T13:15:00;4.05;;;1.20;;
59074;SDS011;44860;53.020;6.738;2023-04-02T13:17:38;5.03;;;1.40;;
59074;SDS011;44860;53.020;6.738;2023-04-02T13:23:22;4.80;;;1.55;;
59074;SDS011;44860;53.020;6.738;2023-04-02T13:25:54;3.28;;;1.25;;
59074;SDS011;44860;53.020;6.738;2023-04-02T13:28:24;5.13;;;1.40;;
59074;SDS011;44860;53.020;6.738;2023-04-02T13:30:50;2.67;;;1.30;;
59074;SDS011;44860;53.020;6.738;2023-04-02T13:33:16;4.15;;;1.38;;
59074;SDS011;44860;53.020;6.738;2023-04-02T13:35:42;4.38;;;1.42;;
59074;SDS011;44860;53.020;6.738;2023-04-02T13:38:08;2.40;;;1.13;;
59074;SDS011;44860;53.020;6.738;2023-04-02T13:40:34;3.33;;;1.17;;
59074;SDS011;44860;53.020;6.738;2023-04-02T13:46:42;4.80;;;1.13;;
59074;SDS011;44860;53.020;6.738;2023-04-02T13:49:07;2.72;;;1.30;;
59074;SDS011;44860;53.020;6.738;2023-04-02T13:51:40;2.25;;;1.30;;
59074;SDS011;44860;53.020;6.738;2023-04-02T13:56:51;2.80;;;1.15;;
59074;SDS011;44860;53.020;6.738;2023-04-02T13:59:18;1.90;;;1.00;;
59074;SDS011;44860;53.020;6.738;2023-04-02T14:01:44;2.63;;;1.13;;
59074;SDS011;44860;53.020;6.738;2023-04-02T14:04:13;2.53;;;1.02;;
59074;SDS011;44860;53.020;6.738;2023-04-02T14:19:54;2.00;;;1.02;;
59074;SDS011;44860;53.020;6.738;2023-04-02T14:22:50;2.33;;;1.00;;
59074;SDS011;44860;53.020;6.738;2023-04-02T14:28:08;3.65;;;1.10;;
59074;SDS011;44860;53.020;6.738;2023-04-02T14:39:33;3.28;;;1.20;;
59074;SDS011;44860;53.020;6.738;2023-04-02T14:42:15;2.40;;;1.10;;
59074;SDS011;44860;53.020;6.738;2023-04-02T14:47:53;3.15;;;1.30;;
59074;SDS011;44860;53.020;6.738;2023-04-02T14:50:39;3.53;;;1.23;;
59074;SDS011;44860;53.020;6.738;2023-04-02T14:53:07;3.28;;;1.20;;
59074;SDS011;44860;53.020;6.738;2023-04-02T14:58:14;4.88;;;1.40;;
59074;SDS011;44860;53.020;6.738;2023-04-02T15:00:45;4.15;;;1.23;;
59074;SDS011;44860;53.020;6.738;2023-04-02T15:03:33;4.28;;;1.58;;
59074;SDS011;44860;53.020;6.738;2023-04-02T15:06:22;2.08;;;1.35;;
59074;SDS011;44860;53.020;6.738;2023-04-02T15:09:04;2.95;;;1.27;;
59074;SDS011;44860;53.020;6.738;2023-04-02T15:14:10;2.03;;;1.40;;
59074;SDS011;44860;53.020;6.738;2023-04-02T15:16:46;2.67;;;1.42;;
59074;SDS011;44860;53.020;6.738;2023-04-02T15:19:13;3.63;;;1.40;;
59074;SDS011;44860;53.020;6.738;2023-04-02T15:30:12;3.42;;;1.80;;
59074;SDS011;44860;53.020;6.738;2023-04-02T15:32:42;2.05;;;1.10;;
59074;SDS011;44860;53.020;6.738;2023-04-02T15:40:34;3.25;;;1.48;;
59074;SDS011;44860;53.020;6.738;2023-04-02T15:46:34;2.53;;;1.25;;
59074;SDS011;44860;53.020;6.738;2023-04-02T15:49:20;3.28;;;1.40;;
59074;SDS011;44860;53.020;6.738;2023-04-02T16:05:08;3.05;;;1.30;;
59074;SDS011;44860;53.020;6.738;2023-04-02T16:07:59;4.13;;;1.25;;
59074;SDS011;44860;53.020;6.738;2023-04-02T16:10:37;2.83;;;1.20;;
59074;SDS011;44860;53.020;6.738;2023-04-02T16:13:10;3.15;;;1.40;;
59074;SDS011;44860;53.020;6.738;2023-04-02T16:16:00;2.85;;;1.40;;
59074;SDS011;44860;53.020;6.738;2023-04-02T16:18:51;2.83;;;1.00;;
59074;SDS011;44860;53.020;6.738;2023-04-02T16:21:32;3.08;;;1.50;;
59074;SDS011;44860;53.020;6.738;2023-04-02T16:24:05;2.97;;;1.20;;
59074;SDS011;44860;53.020;6.738;2023-04-02T16:41:12;2.83;;;1.17;;
59074;SDS011;44860;53.020;6.738;2023-04-02T16:54:27;2.05;;;1.02;;
59074;SDS011;44860;53.020;6.738;2023-04-02T16:57:17;1.65;;;1.10;;
59074;SDS011;44860;53.020;6.738;2023-04-02T17:05:25;2.28;;;1.10;;
59074;SDS011;44860;53.020;6.738;2023-04-02T17:13:24;3.22;;;1.10;;
59074;SDS011;44860;53.020;6.738;2023-04-02T17:16:01;2.28;;;1.10;;
59074;SDS011;44860;53.020;6.738;2023-04-02T17:18:47;2.92;;;1.17;;
59074;SDS011;44860;53.020;6.738;2023-04-02T17:21:25;2.90;;;1.15;;
59074;SDS011;44860;53.020;6.738;2023-04-02T17:24:14;7.95;;;6.55;;
59074;SDS011;44860;53.020;6.738;2023-04-02T17:26:57;3.03;;;1.73;;
59074;SDS011;44860;53.020;6.738;2023-04-02T17:29:32;3.45;;;1.80;;
59074;SDS011;44860;53.020;6.738;2023-04-02T17:32:03;2.42;;;1.20;;
59074;SDS011;44860;53.020;6.738;2023-04-02T17:34:35;1.88;;;1.10;;
59074;SDS011;44860;53.020;6.738;2023-04-02T17:37:03;2.00;;;1.10;;
59074;SDS011;44860;53.020;6.738;2023-04-02T17:45:39;1.33;;;0.93;;
59074;SDS011;44860;53.020;6.738;2023-04-02T17:48:19;2.78;;;1.10;;
59074;SDS011;44860;53.020;6.738;2023-04-02T17:51:01;1.52;;;1.10;;
59074;SDS011;44860;53.020;6.738;2023-04-02T17:56:53;2.63;;;1.10;;
59074;SDS011;44860;53.020;6.738;2023-04-02T18:05:02;6.72;;;4.10;;
59074;SDS011;44860;53.020;6.738;2023-04-02T18:08:23;3.40;;;1.60;;
59074;SDS011;44860;53.020;6.738;2023-04-02T18:10:45;2.53;;;1.17;;
59074;SDS011;44860;53.020;6.738;2023-04-02T18:13:34;2.28;;;1.27;;
59074;SDS011;44860;53.020;6.738;2023-04-02T18:29:42;4.45;;;1.50;;
59074;SDS011;44860;53.020;6.738;2023-04-02T18:46:48;6.38;;;2.85;;
59074;SDS011;44860;53.020;6.738;2023-04-02T18:49:36;3.70;;;1.90;;
59074;SDS011;44860;53.020;6.738;2023-04-02T18:52:11;4.82;;;1.65;;
59074;SDS011;44860;53.020;6.738;2023-04-02T18:54:42;2.67;;;1.40;;
59074;SDS011;44860;53.020;6.738;2023-04-02T18:57:23;2.75;;;1.40;;
59074;SDS011;44860;53.020;6.738;2023-04-02T19:05:37;3.38;;;1.73;;
59074;SDS011;44860;53.020;6.738;2023-04-02T19:08:21;2.83;;;1.42;;
59074;SDS011;44860;53.020;6.738;2023-04-02T19:10:53;4.05;;;1.67;;
59074;SDS011;44860;53.020;6.738;2023-04-02T19:13:24;5.43;;;1.52;;
59074;SDS011;44860;53.020;6.738;2023-04-02T19:18:37;3.13;;;1.50;;
59074;SDS011;44860;53.020;6.738;2023-04-02T19:24:11;3.30;;;1.55;;
59074;SDS011;44860;53.020;6.738;2023-04-02T19:27:17;2.42;;;1.33;;
59074;SDS011;44860;53.020;6.738;2023-04-02T19:30:15;2.80;;;1.33;;
59074;SDS011;44860;53.020;6.738;2023-04-02T19:32:47;4.72;;;1.67;;
59074;SDS011;44860;53.020;6.738;2023-04-02T19:35:21;2.08;;;1.58;;
59074;SDS011;44860;53.020;6.738;2023-04-02T19:43:23;3.28;;;1.73;;
59074;SDS011;44860;53.020;6.738;2023-04-02T19:45:48;3.38;;;1.75;;
59074;SDS011;44860;53.020;6.738;2023-04-02T19:48:20;4.60;;;2.00;;
59074;SDS011;44860;53.020;6.738;2023-04-02T19:50:50;3.92;;;2.00;;
59074;SDS011;44860;53.020;6.738;2023-04-02T19:53:16;14.45;;;9.15;;
59074;SDS011;44860;53.020;6.738;2023-04-02T19:55:42;3.17;;;2.00;;
59074;SDS011;44860;53.020;6.738;2023-04-02T20:00:59;5.65;;;1.88;;
59074;SDS011;44860;53.020;6.738;2023-04-02T20:03:25;2.95;;;1.70;;
59074;SDS011;44860;53.020;6.738;2023-04-02T20:05:51;2.55;;;1.55;;
59074;SDS011;44860;53.020;6.738;2023-04-02T20:08:17;4.90;;;1.80;;
59074;SDS011;44860;53.020;6.738;2023-04-02T20:10:43;2.58;;;1.50;;
59074;SDS011;44860;53.020;6.738;2023-04-02T20:13:08;3.35;;;1.70;;
59074;SDS011;44860;53.020;6.738;2023-04-02T20:15:34;3.00;;;1.52;;
59074;SDS011;44860;53.020;6.738;2023-04-02T20:18:00;2.72;;;1.50;;
59074;SDS011;44860;53.020;6.738;2023-04-02T20:20:26;4.22;;;2.47;;
59074;SDS011;44860;53.020;6.738;2023-04-02T20:22:52;6.03;;;3.45;;
59074;SDS011;44860;53.020;6.738;2023-04-02T20:25:17;4.38;;;2.15;;
59074;SDS011;44860;53.020;6.738;2023-04-02T20:27:43;2.25;;;1.25;;
59074;SDS011;44860;53.020;6.738;2023-04-02T20:30:09;3.22;;;1.67;;
59074;SDS011;44860;53.020;6.738;2023-04-02T20:32:35;3.78;;;1.70;;
59074;SDS011;44860;53.020;6.738;2023-04-02T20:35:01;3.28;;;1.52;;
59074;SDS011;44860;53.020;6.738;2023-04-02T20:37:27;3.38;;;1.60;;
59074;SDS011;44860;53.020;6.738;2023-04-02T20:39:54;7.10;;;1.85;;
59074;SDS011;44860;53.020;6.738;2023-04-02T20:42:22;3.83;;;1.45;;
59074;SDS011;44860;53.020;6.738;2023-04-02T20:44:48;3.63;;;1.63;;
59074;SDS011;44860;53.020;6.738;2023-04-02T20:47:14;4.50;;;1.80;;
59074;SDS011;44860;53.020;6.738;2023-04-02T20:49:40;4.38;;;1.70;;
59074;SDS011;44860;53.020;6.738;2023-04-02T20:52:05;3.05;;;1.63;;
59074;SDS011;44860;53.020;6.738;2023-04-02T20:54:31;4.72;;;1.60;;